Brasilia, Brazil
Current Conditions -  °F | °C
As of 2:10 PM on Thursday 30 Oct 2014 (Local Time) from SBBR Reporting Station
Thunderstorm Thunderstorm  
Wind Chill: 73°   Ceiling: 2000
Heat Index: 73°   Visibility: 6mi
Dew Point: 66°   Wind: 7mph
Humidity: 78%   Direction: 210°SSW
Pressure: NA   Gusts: NA
Location:  15.78°S, 47.91°W
Report Text: SBBR 301610Z 21006KT 9000 3000SW -TSRA BKN020 FEW035CB 23/19 Q1016 WS PST 29R
Loading
Personal Weather Stations






























Interactive Weather Map
Tropical Storm Tracking
New forecast layout! Learn more

10-Day Weather Forecast

Advertisements
Track Severe Weather on mobile